METAR Data
IDs: Format: Raw Decoded Include TAF

Data at: 2132 UTC 24 Mar 2019

KCLL 242053Z 21007KT 180V250 10SM FEW039 BKN050 27/18 A3002 RMK AO2 SLP163 T02670178 56021
KCLL 241953Z 18009KT 10SM FEW033 BKN046 26/18 A3004 RMK AO2 SLP169 T02610178
KCLL 241853Z 19009KT 10SM FEW029 OVC039 24/18 A3007 RMK AO2 SLP178 T02390178
KCLL 241753Z 21010KT 10SM FEW023 OVC036 23/18 A3009 RMK AO2 SLP184 T02330183 10239 20172 58012
KCLL 241653Z 21010KT 10SM FEW021 BKN031 23/18 A3010 RMK AO2 SLP189 T02280183
KCLL 241624Z 20007KT 10SM SCT014 BKN018 OVC026 22/18 A3011 RMK AO2 T02220183
KCLL 241553Z 19009KT 10SM OVC013 21/18 A3012 RMK AO2 SLP196 T02060183
KCLL 241536Z 19006KT 10SM BKN010 OVC015 20/18 A3012 RMK AO2 CIG 007V013 T02000183
KCLL 241453Z 18006KT 8SM OVC006 19/18 A3012 RMK AO2 SLP196 T01890178 53014
KCLL 241353Z 18006KT 8SM OVC006 18/18 A3010 RMK AO2 SLP190 T01830178
KCLL 241302Z 19005KT 10SM BKN009 OVC015 18/17 A3009 RMK AO2 CIG 007V013 T01780172
KCLL 241253Z 18006KT 10SM SCT009 BKN015 OVC021 18/17 A3009 RMK AO2 SLP185 T01780172
KCLL 241246Z AUTO 19005KT 10SM SCT009 BKN015 OVC021 18/17 A3009 RMK AO2 T01780172
KCLL 241221Z AUTO 18006KT 10SM FEW010 SCT016 OVC020 18/17 A3008 RMK AO2 T01780167
KCLL 241153Z AUTO 18004KT 10SM OVC010 18/17 A3008 RMK AO2 SLP182 T01780167 10178 20167 51004
KCLL 241053Z AUTO 18005KT 10SM OVC014 17/16 A3008 RMK AO2 SLP182 T01720161
KCLL 241045Z AUTO 19005KT 10SM OVC014 17/16 A3008 RMK AO2 T01720161
KCLL 241000Z AUTO 21004KT 10SM SCT018 BKN024 17/16 A3007 RMK AO2 T01670161
KCLL 240953Z AUTO 19004KT 10SM SCT022 17/16 A3007 RMK AO2 SLP180 T01670161
KCLL 240901Z AUTO 16009KT 10SM SCT022 BKN055 17/16 A3007 RMK AO2 T01720156
KCLL 240853Z AUTO 16008KT 10SM BKN022 OVC060 17/16 A3007 RMK AO2 SLP178 T01720156 58006
KCLL 240836Z AUTO 16007KT 10SM BKN023 OVC060 17/16 A3007 RMK AO2 T01720156
KCLL 240753Z AUTO 16007KT 10SM BKN060 17/16 A3008 RMK AO2 SLP182 T01670156
KCLL 240653Z AUTO 15008KT 10SM CLR 17/16 A3009 RMK AO2 SLP185 T01720156
KCLL 240553Z AUTO 15010KT 10SM CLR 17/16 A3008 RMK AO2 SLP184 T01720156 10222 20172 402440144 56006
KCLL 240453Z AUTO 17013KT 10SM CLR 18/16 A3009 RMK AO2 SLP185 T01830156
KCLL 240353Z AUTO 16017G23KT 10SM CLR 19/16 A3008 RMK AO2 SLP184 T01890156
KCLL 240253Z AUTO 15014KT 10SM SCT037 OVC070 19/16 A3010 RMK AO2 SLP189 T01940156 53022
KCLL 240153Z AUTO 15011KT 10SM FEW041 BKN070 20/16 A3008 RMK AO2 SLP182 T02000156
KCLL 240053Z 15010KT 10SM CLR 21/16 A3005 RMK AO2 SLP174 T02060156
KCLL 232353Z 14013G26KT 10SM SCT090 22/16 A3004 RMK AO2 PK WND 15026/2345 SLP168 T02220156 10244 20200 56011
KCLL 232253Z 16013G22KT 10SM FEW042 SCT060 OVC090 23/15 A3005 RMK AO2 SLP171 T02280150
KCLL 232153Z 17015G21KT 10SM SCT045 BKN060 OVC095 24/14 A3005 RMK AO2 SLP171 T02390144
KCLL 232053Z 16011G21KT 10SM FEW035 FEW042 BKN050 23/16 A3007 RMK AO2 SLP179 T02330156 56020
KCLL 231953Z 18016G22KT 10SM SCT025 BKN075 23/16 A3009 RMK AO2 SLP185 T02280161
KCLL 231853Z 16013KT 10SM BKN075 21/16 A3011 RMK AO2 SLP192 T02060161
KCLL 231753Z 16011KT 10SM OVC070 20/16 A3013 RMK AO2 SLP200 60000 T02000156 10211 20150 58005
KCLL 231653Z 15012KT 10SM FEW070 OVC100 21/16 A3013 RMK AO2 SLP200 T02060156
KCLL 231553Z 15011KT 10SM FEW065 BKN095 19/15 A3014 RMK AO2 SLP203 T01940150
KCLL 231453Z 16007KT 10SM OVC065 18/15 A3014 RMK AO2 SLP204 60000 T01780150 51020
KCLL 231353Z 11004KT 10SM FEW070 OVC090 16/14 A3013 RMK AO2 RAB1259E12 SLP201 P0000 T01610144
KCLL 231253Z 12005KT 10SM OVC075 16/14 A3012 RMK AO2 SLP195 T01560139
KCLL 231153Z AUTO 08003KT 10SM OVC075 15/13 A3008 RMK AO2 SLP183 T01500133 10156 20144 53008
KCLL 231053Z AUTO 10004KT 10SM BKN070 14/13 A3006 RMK AO2 SLP174 T01440133
KCLL 230953Z AUTO 17005KT 10SM CLR 14/13 A3005 RMK AO2 SLP173 T01440133